createdAt,value
2022-12-18T00:01:26.014Z,94.62
2022-12-18T00:03:56.232Z,94.37
2022-12-18T00:06:26.613Z,94.42
2022-12-18T00:08:56.080Z,94.97
2022-12-18T00:11:27.328Z,94.95
2022-12-18T00:13:56.857Z,94.97
2022-12-18T00:16:26.185Z,94.14
2022-12-18T00:19:00.360Z,94.12
2022-12-18T00:21:30.068Z,94.63
2022-12-18T00:23:58.592Z,94.31
2022-12-18T00:26:31.345Z,93.77
2022-12-18T00:29:02.367Z,93.95
2022-12-18T00:31:31.616Z,93.39
2022-12-18T00:34:00.293Z,94.82
2022-12-18T00:36:31.092Z,94.23
2022-12-18T00:39:00.798Z,94.13
2022-12-18T00:41:47.842Z,93.89
2022-12-18T00:44:18.233Z,94.61
2022-12-18T00:46:47.157Z,94.44
2022-12-18T00:49:16.571Z,95.22
2022-12-18T00:51:44.379Z,96.26
2022-12-18T00:54:12.364Z,96.15
2022-12-18T00:56:48.370Z,94.76
2022-12-18T00:59:18.768Z,95.06
2022-12-18T01:01:47.671Z,95.08
2022-12-18T01:04:15.898Z,93.79
2022-12-18T01:06:46.307Z,92.79
2022-12-18T01:09:14.127Z,91.51
2022-12-18T01:11:41.552Z,92.34
2022-12-18T01:14:09.764Z,92.35
2022-12-18T01:16:38.719Z,93.80
2022-12-18T01:19:06.251Z,94.42
2022-12-18T01:21:34.484Z,94.50
2022-12-18T01:24:05.765Z,93.40
2022-12-18T01:26:33.257Z,92.48
2022-12-18T01:29:00.993Z,92.46
2022-12-18T01:31:32.510Z,94.71
2022-12-18T01:34:03.027Z,92.79
2022-12-18T01:36:34.169Z,91.82
2022-12-18T01:39:06.334Z,92.61
2022-12-18T01:41:54.661Z,92.02
2022-12-18T01:44:59.016Z,93.52
2022-12-18T01:47:29.558Z,94.26
2022-12-18T01:50:00.421Z,93.94
2022-12-18T01:52:31.866Z,93.84
2022-12-18T01:55:01.339Z,91.99
2022-12-18T01:57:29.808Z,92.34
2022-12-18T02:00:04.081Z,92.24
2022-12-18T02:02:42.120Z,90.11
2022-12-18T02:05:12.630Z,91.06
2022-12-18T02:08:02.790Z,90.01
2022-12-18T02:10:43.734Z,91.82
2022-12-18T02:13:39.495Z,90.07
2022-12-18T02:16:10.256Z,89.40
2022-12-18T02:18:45.355Z,89.23
2022-12-18T02:21:22.032Z,88.83
2022-12-18T02:24:01.517Z,88.62
2022-12-18T02:26:42.215Z,89.26
2022-12-18T02:29:16.462Z,89.30
2022-12-18T02:31:50.036Z,89.46
2022-12-18T02:34:20.636Z,89.70
2022-12-18T02:36:50.947Z,90.50
2022-12-18T02:39:23.038Z,90.58
2022-12-18T02:41:52.320Z,89.58
2022-12-18T02:44:21.523Z,90.59
2022-12-18T02:46:54.114Z,89.78
2022-12-18T02:49:28.740Z,89.69
2022-12-18T02:52:25.727Z,92.93
2022-12-18T02:55:13.415Z,91.90
2022-12-18T02:57:50.597Z,92.25
2022-12-18T03:00:30.587Z,92.00
2022-12-18T03:03:07.127Z,93.22
2022-12-18T03:05:40.327Z,93.12
2022-12-18T03:08:20.051Z,92.44
2022-12-18T03:11:05.714Z,92.61
2022-12-18T03:13:38.463Z,93.94
2022-12-18T03:16:10.390Z,94.12
2022-12-18T03:18:42.141Z,94.65
2022-12-18T03:21:12.875Z,94.70
2022-12-18T03:23:49.352Z,94.91
2022-12-18T03:26:23.381Z,94.21
2022-12-18T03:28:57.575Z,94.13
2022-12-18T03:31:30.348Z,93.86
2022-12-18T03:34:09.623Z,94.12
2022-12-18T03:36:39.070Z,93.47
2022-12-18T03:39:06.804Z,92.80
2022-12-18T03:41:44.372Z,93.23
2022-12-18T03:44:21.795Z,93.34
2022-12-18T03:46:59.139Z,94.41
2022-12-18T03:49:54.907Z,92.84
2022-12-18T03:52:29.459Z,93.23
2022-12-18T03:55:00.775Z,93.01
2022-12-18T03:57:31.311Z,93.13
2022-12-18T04:00:11.979Z,94.74
2022-12-18T04:02:47.170Z,93.93
2022-12-18T04:05:16.850Z,94.10
2022-12-18T04:07:46.134Z,94.96
2022-12-18T04:10:16.807Z,94.24
2022-12-18T04:12:45.228Z,94.47
2022-12-18T04:15:13.299Z,93.85
2022-12-18T04:17:48.244Z,93.86
2022-12-18T04:20:16.935Z,93.75
2022-12-18T04:22:44.719Z,94.03
2022-12-18T04:25:12.217Z,94.17
2022-12-18T04:27:40.978Z,94.42
2022-12-18T04:30:09.887Z,94.14
2022-12-18T04:32:37.843Z,94.65
2022-12-18T04:35:07.661Z,94.19
2022-12-18T04:37:35.851Z,93.78
2022-12-18T04:40:04.164Z,93.74
2022-12-18T04:42:32.742Z,94.69
2022-12-18T04:45:00.191Z,93.85
2022-12-18T04:47:27.645Z,93.28
2022-12-18T04:49:55.490Z,94.81
2022-12-18T04:52:25.906Z,93.75
2022-12-18T04:54:53.312Z,93.93
2022-12-18T04:57:21.001Z,93.47
2022-12-18T04:59:48.548Z,94.03
2022-12-18T05:02:16.088Z,93.81
2022-12-18T05:04:43.984Z,94.62
2022-12-18T05:07:11.414Z,94.50
2022-12-18T05:09:38.863Z,94.22
2022-12-18T05:12:06.739Z,94.56
2022-12-18T05:14:34.136Z,93.33
2022-12-18T05:17:01.588Z,94.79
2022-12-18T05:19:29.358Z,94.20
2022-12-18T05:21:56.784Z,95.21
2022-12-18T05:24:24.231Z,95.11
2022-12-18T05:26:52.023Z,95.61
2022-12-18T05:29:19.421Z,95.66
2022-12-18T05:31:46.962Z,96.21
2022-12-18T05:34:14.842Z,96.55
2022-12-18T05:36:42.415Z,96.84
2022-12-18T05:39:10.559Z,96.61
2022-12-18T05:41:38.367Z,97.23
2022-12-18T05:44:06.103Z,97.91
2022-12-18T05:46:33.687Z,98.08
2022-12-18T05:49:02.236Z,98.61
2022-12-18T05:51:29.738Z,98.80
2022-12-18T05:53:57.271Z,98.51
2022-12-18T05:56:25.064Z,98.12
2022-12-18T05:58:54.419Z,98.18
2022-12-18T06:01:26.402Z,98.79
2022-12-18T06:03:54.549Z,99.14
2022-12-18T06:06:25.339Z,98.79
2022-12-18T06:08:53.976Z,100.00
2022-12-18T06:11:24.771Z,99.14
2022-12-18T06:13:58.881Z,100.00
2022-12-18T06:16:28.894Z,99.42
2022-12-18T06:19:04.519Z,99.64
2022-12-18T06:21:33.199Z,99.99
2022-12-18T06:24:01.527Z,100.00
2022-12-18T06:26:28.995Z,99.50
2022-12-18T06:28:56.981Z,100.00
2022-12-18T06:31:25.983Z,100.00
2022-12-18T06:33:54.043Z,100.00
2022-12-18T06:36:22.278Z,100.00
2022-12-18T06:38:50.184Z,100.00
2022-12-18T06:41:20.358Z,100.00
2022-12-18T06:43:48.281Z,99.71
2022-12-18T06:46:16.160Z,100.00
2022-12-18T06:48:43.751Z,100.00
2022-12-18T06:51:11.534Z,100.00
2022-12-18T06:53:39.232Z,99.95
2022-12-18T06:56:10.710Z,99.31
2022-12-18T06:58:40.091Z,100.00
2022-12-18T07:01:11.037Z,99.55
2022-12-18T07:03:41.491Z,99.17
2022-12-18T07:06:20.659Z,100.00
2022-12-18T07:08:49.649Z,100.00
2022-12-18T07:11:18.408Z,100.00
2022-12-18T07:13:46.985Z,100.00
2022-12-18T07:16:24.860Z,100.00
2022-12-18T07:18:55.633Z,100.00
2022-12-18T07:21:24.913Z,100.00
2022-12-18T07:23:53.148Z,100.00
2022-12-18T07:26:22.252Z,100.00
2022-12-18T07:28:50.279Z,100.00
2022-12-18T07:31:22.688Z,100.00
2022-12-18T07:33:51.537Z,100.00
2022-12-18T07:36:19.416Z,100.00
2022-12-18T07:38:50.785Z,100.00
2022-12-18T07:41:19.639Z,100.00
2022-12-18T07:43:47.648Z,100.00
2022-12-18T07:46:16.680Z,100.00
2022-12-18T07:48:46.295Z,100.00
2022-12-18T07:51:19.384Z,100.00
2022-12-18T07:53:52.254Z,100.00
2022-12-18T07:56:29.561Z,99.86
2022-12-18T07:58:59.874Z,99.15
2022-12-18T08:01:27.856Z,99.89
2022-12-18T08:03:55.996Z,99.83
2022-12-18T08:06:24.221Z,99.44
2022-12-18T08:08:56.345Z,100.00
2022-12-18T08:11:25.934Z,100.00
2022-12-18T08:13:53.988Z,100.00
2022-12-18T08:16:22.953Z,100.00
2022-12-18T08:18:53.727Z,100.00
2022-12-18T08:21:25.808Z,99.34
2022-12-18T08:23:55.258Z,100.00
2022-12-18T08:26:23.727Z,100.00
2022-12-18T08:28:52.363Z,100.00
2022-12-18T08:31:21.032Z,100.00
2022-12-18T08:33:51.417Z,99.10
2022-12-18T08:36:20.547Z,100.00
2022-12-18T08:38:48.425Z,99.38
2022-12-18T08:41:18.195Z,98.20
2022-12-18T08:44:04.374Z,98.35
2022-12-18T08:46:36.198Z,99.42
2022-12-18T08:49:04.816Z,97.99
2022-12-18T08:51:32.716Z,96.39
2022-12-18T08:54:00.619Z,96.60
2022-12-18T08:56:28.055Z,96.66
2022-12-18T08:58:56.047Z,96.54
2022-12-18T09:01:23.870Z,95.21
2022-12-18T09:03:52.031Z,94.56
2022-12-18T09:06:21.376Z,94.17
2022-12-18T09:08:48.901Z,94.55
2022-12-18T09:11:22.288Z,94.29
2022-12-18T09:13:51.330Z,94.32
2022-12-18T09:16:19.272Z,95.45
2022-12-18T09:18:47.863Z,95.05
2022-12-18T09:21:21.458Z,94.33
2022-12-18T09:23:53.259Z,93.30
2022-12-18T09:26:22.627Z,92.37
2022-12-18T09:28:51.257Z,92.85
2022-12-18T09:31:21.607Z,93.05
2022-12-18T09:33:49.386Z,92.48
2022-12-18T09:36:18.577Z,92.69
2022-12-18T09:38:46.126Z,94.05
2022-12-18T09:41:32.059Z,91.35
2022-12-18T09:44:19.671Z,92.37
2022-12-18T09:46:54.896Z,93.11
2022-12-18T09:49:27.507Z,92.15
2022-12-18T09:51:58.236Z,89.90
2022-12-18T09:54:33.966Z,89.42
2022-12-18T09:57:02.106Z,90.90
2022-12-18T09:59:40.834Z,89.34
2022-12-18T10:02:23.858Z,91.07
2022-12-18T10:05:15.398Z,90.53
2022-12-18T10:08:03.028Z,87.61
2022-12-18T10:10:42.932Z,87.38
2022-12-18T10:13:29.384Z,86.11
2022-12-18T10:16:27.598Z,85.45
2022-12-18T10:19:16.480Z,85.18
2022-12-18T10:21:51.284Z,84.88
2022-12-18T10:24:21.624Z,83.42
2022-12-18T10:26:49.420Z,81.60
2022-12-18T10:29:18.019Z,82.20
2022-12-18T10:31:45.491Z,81.17
2022-12-18T10:34:16.412Z,79.37
2022-12-18T10:36:44.094Z,79.04
2022-12-18T10:39:24.086Z,78.75
2022-12-18T10:41:52.816Z,78.41
2022-12-18T10:44:30.432Z,77.75
2022-12-18T10:47:10.068Z,77.72
2022-12-18T10:49:43.100Z,78.38
2022-12-18T10:52:23.697Z,77.51
2022-12-18T10:55:04.172Z,77.45
2022-12-18T10:57:37.986Z,77.14
2022-12-18T11:00:28.632Z,76.70
2022-12-18T11:02:57.345Z,76.42
2022-12-18T11:05:34.987Z,77.01
2022-12-18T11:08:02.987Z,75.18
2022-12-18T11:10:36.547Z,74.92
2022-12-18T11:13:32.536Z,74.66
2022-12-18T11:16:00.610Z,73.08
2022-12-18T11:18:34.909Z,72.83
2022-12-18T11:21:12.009Z,72.35
2022-12-18T11:23:50.359Z,72.95
2022-12-18T11:26:18.543Z,72.54
2022-12-18T11:28:51.572Z,71.74
2022-12-18T11:31:20.998Z,71.20
2022-12-18T11:34:28.682Z,72.03
2022-12-18T11:37:00.591Z,71.35
2022-12-18T11:39:34.488Z,72.17
2022-12-18T11:42:35.718Z,72.18
2022-12-18T11:45:31.609Z,72.62
2022-12-18T11:48:10.137Z,72.52
2022-12-18T11:50:38.408Z,72.80
2022-12-18T11:53:10.273Z,71.96
2022-12-18T11:56:00.777Z,71.18
2022-12-18T11:58:54.611Z,72.39
2022-12-18T12:01:44.674Z,71.99
2022-12-18T12:04:37.176Z,72.03
2022-12-18T12:07:12.185Z,72.46
2022-12-18T12:09:47.000Z,71.15
2022-12-18T12:12:58.512Z,71.32
2022-12-18T12:15:44.105Z,71.24
2022-12-18T12:18:16.567Z,70.53
2022-12-18T12:21:04.628Z,70.23
2022-12-18T12:23:40.968Z,70.58
2022-12-18T12:26:30.866Z,70.74
2022-12-18T12:29:27.652Z,69.70
2022-12-18T12:32:13.573Z,70.24
2022-12-18T12:35:09.818Z,70.81
2022-12-18T12:37:37.576Z,71.27
2022-12-18T12:40:26.786Z,71.43
2022-12-18T12:43:13.633Z,71.94
2022-12-18T12:46:01.983Z,71.20
2022-12-18T12:48:38.066Z,71.35
2022-12-18T12:51:29.704Z,71.75
2022-12-18T12:54:00.493Z,71.84
2022-12-18T12:56:47.032Z,72.26
2022-12-18T12:59:32.727Z,72.22
2022-12-18T13:02:16.731Z,72.22
2022-12-18T13:04:50.109Z,72.74
2022-12-18T13:07:59.384Z,73.44
2022-12-18T13:10:33.528Z,73.21
2022-12-18T13:13:13.417Z,73.90
2022-12-18T13:15:51.283Z,75.34
2022-12-18T13:18:24.874Z,75.27
2022-12-18T13:21:01.207Z,75.06
2022-12-18T13:23:41.725Z,74.98
2022-12-18T13:26:23.224Z,75.80
2022-12-18T13:28:57.892Z,75.01
2022-12-18T13:31:32.059Z,75.35
2022-12-18T13:34:26.106Z,75.21
2022-12-18T13:36:57.281Z,75.95
2022-12-18T13:39:34.765Z,76.17
2022-12-18T13:42:06.372Z,76.22
2022-12-18T13:44:40.902Z,76.56
2022-12-18T13:47:33.772Z,76.50
2022-12-18T13:50:10.145Z,76.18
2022-12-18T13:52:40.490Z,77.01
2022-12-18T13:55:18.844Z,76.94
2022-12-18T13:57:47.092Z,77.54
2022-12-18T14:00:32.102Z,77.43
2022-12-18T14:03:01.021Z,77.53
2022-12-18T14:05:32.160Z,77.61
2022-12-18T14:08:11.149Z,78.38
2022-12-18T14:10:48.521Z,78.15
2022-12-18T14:13:39.123Z,77.95
2022-12-18T14:16:08.628Z,78.60
2022-12-18T14:18:47.473Z,79.21
2022-12-18T14:21:30.322Z,79.03
2022-12-18T14:24:08.161Z,79.09
2022-12-18T14:26:35.693Z,80.13
2022-12-18T14:29:24.690Z,79.71
2022-12-18T14:32:17.742Z,80.01
2022-12-18T14:34:48.368Z,79.88
2022-12-18T14:37:21.068Z,80.26
2022-12-18T14:39:58.076Z,80.81
2022-12-18T14:42:29.132Z,80.66
2022-12-18T14:45:42.621Z,80.96
2022-12-18T14:48:38.805Z,81.41
2022-12-18T14:51:21.678Z,82.03
2022-12-18T14:53:55.841Z,81.78
2022-12-18T14:56:27.132Z,82.19
2022-12-18T14:58:57.355Z,83.11
2022-12-18T15:01:29.253Z,82.87
2022-12-18T15:03:58.689Z,83.11
2022-12-18T15:06:31.419Z,83.49
2022-12-18T15:09:01.465Z,83.98
2022-12-18T15:11:30.725Z,84.05
2022-12-18T15:13:59.658Z,85.29
2022-12-18T15:16:27.781Z,85.16
2022-12-18T15:18:55.991Z,86.38
2022-12-18T15:21:24.688Z,86.92
2022-12-18T15:23:53.628Z,87.67
2022-12-18T15:26:23.155Z,87.82
2022-12-18T15:28:56.952Z,88.39
2022-12-18T15:31:37.865Z,88.77
2022-12-18T15:34:08.681Z,89.99
2022-12-18T15:36:37.504Z,89.36
2022-12-18T15:39:06.789Z,89.51
2022-12-18T15:41:36.375Z,89.93
2022-12-18T15:44:24.337Z,90.07
2022-12-18T15:46:52.257Z,90.35
2022-12-18T15:49:20.561Z,91.05
2022-12-18T15:51:53.514Z,91.51
2022-12-18T15:54:40.932Z,91.85
2022-12-18T15:57:26.592Z,92.43
2022-12-18T15:59:59.003Z,91.91
2022-12-18T16:02:28.950Z,93.13
2022-12-18T16:04:57.048Z,92.83
2022-12-18T16:07:28.170Z,93.46
2022-12-18T16:09:58.920Z,93.11
2022-12-18T16:12:28.533Z,92.71
2022-12-18T16:14:56.112Z,92.79
2022-12-18T16:17:23.978Z,93.77
2022-12-18T16:19:51.730Z,93.24
2022-12-18T16:22:31.072Z,93.34
2022-12-18T16:24:59.151Z,94.31
2022-12-18T16:27:27.120Z,95.85
2022-12-18T16:29:55.031Z,95.11
2022-12-18T16:32:24.598Z,95.46
2022-12-18T16:34:52.521Z,95.14
2022-12-18T16:37:20.284Z,94.76
2022-12-18T16:39:48.255Z,95.34
2022-12-18T16:42:20.056Z,95.53
2022-12-18T16:44:50.091Z,95.77
2022-12-18T16:47:18.313Z,96.35
2022-12-18T16:49:46.643Z,96.33
2022-12-18T16:52:14.980Z,96.62
2022-12-18T16:54:42.658Z,96.70
2022-12-18T16:57:14.265Z,97.34
2022-12-18T16:59:42.249Z,96.88
2022-12-18T17:02:15.696Z,96.73
2022-12-18T17:04:46.336Z,96.55
2022-12-18T17:07:15.185Z,96.45
2022-12-18T17:09:43.284Z,95.77
2022-12-18T17:12:11.309Z,95.76
2022-12-18T17:14:39.119Z,97.13
2022-12-18T17:17:20.762Z,97.35
2022-12-18T17:19:51.248Z,96.49
2022-12-18T17:22:19.479Z,98.21
2022-12-18T17:24:47.535Z,97.61
2022-12-18T17:27:16.669Z,96.52
2022-12-18T17:29:48.330Z,98.39
2022-12-18T17:32:18.116Z,99.95
2022-12-18T17:34:46.068Z,99.40
2022-12-18T17:37:13.703Z,100.00
2022-12-18T17:39:42.239Z,99.42
2022-12-18T17:42:14.582Z,99.13
2022-12-18T17:44:44.250Z,99.66
2022-12-18T17:47:14.479Z,100.00
2022-12-18T17:49:42.244Z,99.39
2022-12-18T17:52:10.776Z,98.81
2022-12-18T17:54:41.459Z,99.77
2022-12-18T17:57:09.302Z,99.12
2022-12-18T17:59:37.344Z,98.09
2022-12-18T18:02:05.187Z,97.36
2022-12-18T18:04:33.903Z,97.56
2022-12-18T18:07:01.781Z,98.08
2022-12-18T18:09:29.311Z,99.83
2022-12-18T18:12:15.768Z,97.85
2022-12-18T18:14:43.598Z,99.12
2022-12-18T18:17:11.770Z,99.30
2022-12-18T18:19:39.694Z,97.69
2022-12-18T18:22:08.296Z,96.98
2022-12-18T18:24:36.330Z,99.50
2022-12-18T18:27:03.844Z,100.00
2022-12-18T18:29:31.373Z,100.00
2022-12-18T18:31:59.422Z,100.00
2022-12-18T18:34:29.399Z,100.00
2022-12-18T18:37:00.448Z,100.00
2022-12-18T18:39:28.904Z,100.00
2022-12-18T18:41:59.415Z,100.00
2022-12-18T18:44:26.963Z,100.00
2022-12-18T18:46:58.859Z,100.00
2022-12-18T18:49:27.895Z,100.00
2022-12-18T18:51:57.493Z,100.00
2022-12-18T18:54:26.173Z,100.00
2022-12-18T18:59:42.737Z,100.00
2022-12-18T19:02:13.753Z,100.00
2022-12-18T19:04:45.622Z,100.00
2022-12-18T19:07:29.333Z,100.00
2022-12-18T19:10:03.997Z,100.00
2022-12-18T19:12:52.919Z,100.00
2022-12-18T19:15:21.652Z,100.00
2022-12-18T19:17:49.413Z,100.00
2022-12-18T19:20:18.960Z,100.00
2022-12-18T19:22:49.836Z,100.00
2022-12-18T19:25:30.693Z,100.00
2022-12-18T19:28:17.377Z,100.00
2022-12-18T19:30:51.439Z,99.97
2022-12-18T19:33:44.630Z,98.23
2022-12-18T19:36:19.128Z,99.32
2022-12-18T19:38:48.954Z,99.43
2022-12-18T19:41:18.568Z,99.25
2022-12-18T19:43:46.699Z,99.95
2022-12-18T19:46:17.581Z,100.00
2022-12-18T19:48:46.111Z,99.99
2022-12-18T19:51:16.056Z,100.00
2022-12-18T19:53:44.324Z,100.00
2022-12-18T19:56:14.907Z,99.84
2022-12-18T19:58:44.269Z,99.77
2022-12-18T20:01:13.996Z,99.34
2022-12-18T20:03:48.498Z,98.97
2022-12-18T20:06:28.724Z,99.93
2022-12-18T20:09:01.290Z,100.00
2022-12-18T20:11:30.625Z,100.00
2022-12-18T20:14:01.597Z,100.00
2022-12-18T20:16:29.671Z,100.00
2022-12-18T20:18:59.016Z,100.00
2022-12-18T20:21:27.005Z,100.00
2022-12-18T20:23:55.827Z,100.00
2022-12-18T20:26:24.813Z,100.00
2022-12-18T20:28:53.955Z,100.00
2022-12-18T20:31:22.641Z,100.00
2022-12-18T20:33:52.156Z,100.00
2022-12-18T20:36:23.436Z,100.00
2022-12-18T20:38:54.728Z,100.00
2022-12-18T20:41:25.202Z,100.00
2022-12-18T20:43:53.327Z,100.00
2022-12-18T20:46:20.892Z,100.00
2022-12-18T20:48:48.387Z,100.00
2022-12-18T20:51:19.621Z,100.00
2022-12-18T20:53:47.600Z,100.00
2022-12-18T20:56:21.644Z,100.00
2022-12-18T20:58:50.903Z,100.00
2022-12-18T21:01:23.897Z,100.00
2022-12-18T21:03:52.411Z,100.00
2022-12-18T21:06:21.966Z,100.00
2022-12-18T21:08:50.438Z,100.00
2022-12-18T21:11:40.058Z,100.00
2022-12-18T21:14:17.140Z,100.00
2022-12-18T21:16:45.586Z,100.00
2022-12-18T21:19:17.991Z,100.00
2022-12-18T21:21:47.350Z,100.00
2022-12-18T21:24:15.463Z,100.00
2022-12-18T21:26:45.849Z,100.00
2022-12-18T21:29:25.623Z,100.00
2022-12-18T21:31:54.599Z,100.00
2022-12-18T21:34:28.554Z,100.00
2022-12-18T21:36:58.488Z,100.00
2022-12-18T21:39:28.104Z,100.00
2022-12-18T21:42:15.890Z,100.00
2022-12-18T21:44:44.772Z,100.00
2022-12-18T21:47:21.651Z,100.00
2022-12-18T21:49:52.899Z,100.00
2022-12-18T21:52:25.705Z,100.00
2022-12-18T21:55:09.044Z,100.00
2022-12-18T21:57:38.607Z,100.00
2022-12-18T22:00:10.416Z,100.00
2022-12-18T22:02:40.697Z,100.00
2022-12-18T22:05:08.777Z,100.00
2022-12-18T22:07:36.555Z,100.00
2022-12-18T22:10:04.611Z,100.00
2022-12-18T22:12:44.008Z,100.00
2022-12-18T22:15:16.279Z,100.00
2022-12-18T22:17:51.238Z,100.00
2022-12-18T22:20:24.831Z,100.00
2022-12-18T22:22:54.329Z,100.00
2022-12-18T22:25:21.753Z,100.00
2022-12-18T22:28:07.904Z,100.00
2022-12-18T22:30:35.814Z,100.00
2022-12-18T22:33:04.011Z,100.00
2022-12-18T22:35:31.561Z,100.00
2022-12-18T22:37:59.909Z,100.00
2022-12-18T22:40:28.143Z,100.00
2022-12-18T22:42:56.091Z,100.00
2022-12-18T22:45:25.576Z,99.21
2022-12-18T22:47:53.427Z,99.50
2022-12-18T22:50:21.209Z,99.78
2022-12-18T22:52:48.654Z,100.00
2022-12-18T22:55:16.353Z,100.00
2022-12-18T22:57:48.757Z,100.00
2022-12-18T23:00:23.899Z,100.00
2022-12-18T23:03:00.339Z,99.27
2022-12-18T23:05:30.734Z,100.00
2022-12-18T23:07:58.586Z,100.00
2022-12-18T23:10:27.273Z,100.00
2022-12-18T23:12:55.028Z,100.00
2022-12-18T23:15:27.664Z,100.00
2022-12-18T23:17:57.786Z,99.60
2022-12-18T23:20:27.192Z,100.00
2022-12-18T23:22:54.759Z,99.82
2022-12-18T23:25:22.584Z,100.00
2022-12-18T23:27:50.625Z,100.00
2022-12-18T23:30:18.288Z,100.00
2022-12-18T23:32:45.998Z,100.00
2022-12-18T23:35:14.208Z,100.00
2022-12-18T23:38:00.539Z,100.00
2022-12-18T23:40:29.491Z,100.00
2022-12-18T23:42:58.516Z,100.00
2022-12-18T23:45:26.006Z,100.00
2022-12-18T23:47:53.909Z,100.00
2022-12-18T23:50:23.767Z,100.00
2022-12-18T23:53:00.696Z,100.00
2022-12-18T23:55:38.577Z,100.00
2022-12-18T23:58:06.973Z,100.00
